Time;durP1;ratioP1;P1;durP2;ratioP2;P2;SDS_P1;SDS_P2;PMS_P1;PMS_P2;Temp;Humidity;BMP_temperature;BMP_pressure;BME280_temperature;BME280_humidity;BME280_pressure;Samples;Min_cycle;Max_cycle;Signal;HPM_P1;HPM_P2
2021/03/10 00:02:09;;;;;;;;;;;17.80;56.20;;;;;;4908196;29;19958;-85
2021/03/10 00:04:36;;;;;;;;;;;17.70;56.20;;;;;;4913685;29;19935;-85
2021/03/10 00:07:02;;;;;;;;;;;17.70;56.90;;;;;;4922688;28;19942;-83
2021/03/10 00:09:28;;;;;;;;;;;17.80;56.20;;;;;;4913995;29;20384;-86
2021/03/10 00:11:55;;;;;;;;;;;17.70;56.20;;;;;;4907112;29;19921;-85
2021/03/10 00:14:21;;;;;;;;;;;17.70;56.20;;;;;;4912558;29;19934;-86
2021/03/10 00:16:47;;;;;;;;;;;17.70;56.20;;;;;;4902215;29;19928;-85
2021/03/10 00:19:14;;;;;;;;;;;17.70;56.20;;;;;;4911237;29;19935;-86
2021/03/10 00:21:40;;;;;;;;;;;17.70;56.20;;;;;;4909067;29;20038;-86
2021/03/10 00:24:06;;;;;;;;;;;17.70;56.20;;;;;;4904664;29;20343;-86
2021/03/10 00:26:33;;;;;;;;;;;17.70;56.10;;;;;;4919417;28;19927;-86
2021/03/10 00:28:59;;;;;;;;;;;17.70;56.10;;;;;;4923529;29;19975;-85
2021/03/10 00:31:25;;;;;;;;;;;17.70;56.00;;;;;;4910874;29;19915;-86
2021/03/10 00:33:52;;;;;;;;;;;17.70;56.00;;;;;;4892755;29;20399;-85
2021/03/10 00:36:18;;;;;;;;;;;17.70;56.00;;;;;;4908636;29;20415;-86
2021/03/10 00:38:44;;;;;;;;;;;17.60;55.90;;;;;;4919011;29;19993;-85
2021/03/10 00:41:11;;;;;;;;;;;17.60;55.90;;;;;;4911027;29;19927;-85
2021/03/10 00:43:37;;;;;;;;;;;17.60;55.80;;;;;;4907076;29;19927;-84
2021/03/10 00:46:03;;;;;;;;;;;17.60;55.90;;;;;;4907607;29;20557;-85
2021/03/10 00:48:29;;;;;;;;;;;17.60;56.50;;;;;;4906734;29;20265;-84
2021/03/10 00:50:56;;;;;;;;;;;17.60;55.80;;;;;;4906673;29;19939;-84
2021/03/10 00:53:22;;;;;;;;;;;17.60;55.80;;;;;;4907833;29;19942;-83
2021/03/10 00:55:48;;;;;;;;;;;17.60;55.80;;;;;;4909384;29;19999;-83
2021/03/10 00:58:14;;;;;;;;;;;17.60;55.80;;;;;;4922579;29;19931;-85
2021/03/10 01:00:41;;;;;;;;;;;17.60;55.80;;;;;;4907997;29;20360;-85
2021/03/10 01:03:07;;;;;;;;;;;17.60;55.70;;;;;;4925059;28;19934;-84
2021/03/10 01:05:46;;;;;;;;;;;17.50;55.70;;;;;;4907124;29;19935;-85
2021/03/10 01:08:13;;;;;;;;;;;17.60;55.70;;;;;;4911393;29;19934;-85
2021/03/10 01:10:40;;;;;;;;;;;17.60;55.60;;;;;;4902009;29;20404;-85
2021/03/10 01:13:06;;;;;;;;;;;17.60;55.60;;;;;;4910551;29;19927;-85
2021/03/10 01:15:33;;;;;;;;;;;17.60;55.50;;;;;;4902208;29;19915;-85
2021/03/10 01:17:59;;;;;;;;;;;17.50;55.50;;;;;;4909021;29;19931;-85
2021/03/10 01:20:25;;;;;;;;;;;17.60;55.50;;;;;;4917039;29;19941;-85
2021/03/10 01:22:52;;;;;;;;;;;17.50;55.50;;;;;;4908400;29;21762;-85
2021/03/10 01:25:19;;;;;;;;;;;17.60;55.50;;;;;;4905679;29;19927;-85
2021/03/10 01:27:45;;;;;;;;;;;17.50;55.40;;;;;;4929531;29;20014;-85
2021/03/10 01:30:12;;;;;;;;;;;17.60;55.50;;;;;;4905904;29;19927;-85
2021/03/10 01:32:39;;;;;;;;;;;17.50;55.40;;;;;;4911369;29;20392;-85
2021/03/10 01:35:06;;;;;;;;;;;17.50;55.40;;;;;;4906264;29;19933;-85
2021/03/10 01:37:32;;;;;;;;;;;17.50;55.30;;;;;;4909169;29;19927;-85
2021/03/10 01:39:59;;;;;;;;;;;17.50;55.30;;;;;;4909163;29;20419;-86
2021/03/10 01:42:25;;;;;;;;;;;17.50;55.30;;;;;;4907747;29;19927;-85
2021/03/10 01:44:51;;;;;;;;;;;17.50;55.30;;;;;;4912748;29;20430;-85
2021/03/10 01:47:18;;;;;;;;;;;17.50;55.20;;;;;;4903827;29;20332;-85
2021/03/10 01:49:44;;;;;;;;;;;17.50;55.20;;;;;;4903848;29;19934;-85
2021/03/10 01:52:12;;;;;;;;;;;17.50;55.20;;;;;;4903877;29;19998;-85
2021/03/10 01:54:38;;;;;;;;;;;17.50;55.10;;;;;;4913895;29;19935;-86
2021/03/10 01:57:05;;;;;;;;;;;17.40;55.00;;;;;;4906690;29;19934;-85
2021/03/10 01:59:31;;;;;;;;;;;17.50;55.10;;;;;;4912618;29;19928;-85
2021/03/10 02:01:57;;;;;;;;;;;17.50;55.00;;;;;;4896727;29;21546;-85
2021/03/10 02:04:23;;;;;;;;;;;17.40;55.00;;;;;;4927229;28;20391;-85
2021/03/10 02:06:57;;;;;;;;;;;17.40;54.90;;;;;;4901438;29;19927;-86
2021/03/10 02:09:46;;;;;;;;;;;17.50;54.90;;;;;;4927430;28;20634;-85
2021/03/10 02:12:16;;;;;;;;;;;17.40;54.90;;;;;;4891772;29;20540;-84
2021/03/10 02:14:55;;;;;;;;;;;17.40;54.80;;;;;;4904811;29;20033;-85
2021/03/10 02:17:25;;;;;;;;;;;17.40;54.80;;;;;;4924043;29;19935;-85
2021/03/10 02:19:54;;;;;;;;;;;17.50;54.80;;;;;;4912031;28;20458;-84
2021/03/10 02:22:39;;;;;;;;;;;17.40;55.40;;;;;;4904362;29;19935;-85
2021/03/10 02:25:21;;;;;;;;;;;17.40;54.70;;;;;;4903456;29;21495;-85
2021/03/10 02:27:51;;;;;;;;;;;17.40;54.70;;;;;;4905128;29;19931;-85
2021/03/10 02:30:22;;;;;;;;;;;17.40;54.70;;;;;;4925103;28;19935;-85
2021/03/10 02:32:59;;;;;;;;;;;17.40;54.60;;;;;;4919221;29;19955;-85
2021/03/10 02:35:26;;;;;;;;;;;17.40;54.60;;;;;;4917328;29;19962;-85
2021/03/10 02:37:53;;;;;;;;;;;17.40;54.60;;;;;;4904504;29;20392;-85
2021/03/10 02:40:21;;;;;;;;;;;17.40;54.50;;;;;;4902737;29;19934;-85
2021/03/10 02:42:48;;;;;;;;;;;17.40;54.50;;;;;;4905440;29;21067;-86
2021/03/10 02:45:17;;;;;;;;;;;17.40;54.40;;;;;;4907806;29;19934;-85
2021/03/10 02:47:43;;;;;;;;;;;17.40;54.40;;;;;;4908788;29;19943;-85
2021/03/10 02:50:11;;;;;;;;;;;17.30;54.40;;;;;;4914677;29;20477;-86
2021/03/10 02:52:38;;;;;;;;;;;17.30;54.30;;;;;;4922195;29;20390;-85
2021/03/10 02:55:05;;;;;;;;;;;17.40;54.40;;;;;;4913070;28;20392;-85
2021/03/10 02:57:32;;;;;;;;;;;17.30;54.30;;;;;;4915412;29;19942;-86
2021/03/10 03:00:06;;;;;;;;;;;17.40;54.40;;;;;;4916633;29;19957;-86
2021/03/10 03:02:32;;;;;;;;;;;17.40;54.30;;;;;;4912189;29;20022;-86
2021/03/10 03:04:59;;;;;;;;;;;17.30;54.30;;;;;;4919196;29;19964;-85
2021/03/10 03:07:25;;;;;;;;;;;17.30;54.30;;;;;;4911498;29;19934;-84
2021/03/10 03:09:51;;;;;;;;;;;17.30;54.30;;;;;;4916304;29;21525;-85
2021/03/10 03:12:18;;;;;;;;;;;17.30;54.20;;;;;;4926549;29;19935;-86
2021/03/10 03:14:45;;;;;;;;;;;17.30;54.20;;;;;;4908512;29;20718;-86
2021/03/10 03:17:11;;;;;;;;;;;17.30;54.20;;;;;;4909897;29;19970;-85
2021/03/10 03:19:38;;;;;;;;;;;17.30;54.20;;;;;;4910073;29;19934;-85
2021/03/10 03:22:06;;;;;;;;;;;17.30;54.20;;;;;;4926416;29;19927;-86
2021/03/10 03:24:32;;;;;;;;;;;17.30;54.20;;;;;;4899498;29;19962;-86
2021/03/10 03:26:59;;;;;;;;;;;17.30;54.20;;;;;;4914016;29;20487;-87
2021/03/10 03:29:26;;;;;;;;;;;17.30;54.20;;;;;;4926217;29;20614;-86
2021/03/10 03:31:54;;;;;;;;;;;17.30;54.10;;;;;;4912118;29;19927;-86
2021/03/10 03:34:20;;;;;;;;;;;17.30;54.10;;;;;;4915003;29;20459;-87
2021/03/10 03:36:47;;;;;;;;;;;17.20;54.10;;;;;;4906174;28;19950;-87
2021/03/10 03:39:13;;;;;;;;;;;17.20;54.10;;;;;;4906563;29;19928;-87
2021/03/10 03:41:39;;;;;;;;;;;17.30;54.10;;;;;;4907539;29;19931;-86
2021/03/10 03:44:06;;;;;;;;;;;17.30;54.10;;;;;;4911799;29;20514;-85
2021/03/10 03:46:32;;;;;;;;;;;17.30;54.10;;;;;;4906828;29;19942;-86
2021/03/10 03:48:59;;;;;;;;;;;17.30;54.10;;;;;;4915357;29;19931;-84
2021/03/10 03:51:30;;;;;;;;;;;17.20;54.00;;;;;;4905696;29;19965;-84
2021/03/10 03:54:03;;;;;;;;;;;17.20;54.00;;;;;;4915739;28;19927;-84
2021/03/10 03:56:30;;;;;;;;;;;17.20;54.00;;;;;;4905572;29;20014;-84
2021/03/10 03:58:56;;;;;;;;;;;17.20;53.90;;;;;;4912742;28;20287;-85
2021/03/10 04:01:23;;;;;;;;;;;17.20;53.90;;;;;;4909036;29;20112;-84
2021/03/10 04:03:49;;;;;;;;;;;17.20;53.90;;;;;;4919531;29;19955;-84
2021/03/10 04:06:16;;;;;;;;;;;17.20;53.90;;;;;;4905771;29;19950;-84
2021/03/10 04:08:43;;;;;;;;;;;17.20;53.90;;;;;;4913757;29;19970;-85
2021/03/10 04:11:10;;;;;;;;;;;17.20;53.90;;;;;;4907801;29;19934;-85
2021/03/10 04:13:36;;;;;;;;;;;17.20;53.90;;;;;;4924042;29;19915;-85
2021/03/10 04:16:02;;;;;;;;;;;17.20;53.90;;;;;;4909770;29;19927;-85
2021/03/10 04:18:35;;;;;;;;;;;17.20;53.90;;;;;;4912273;29;19938;-85
2021/03/10 04:21:02;;;;;;;;;;;17.20;53.90;;;;;;4915787;29;20531;-86
2021/03/10 04:23:28;;;;;;;;;;;17.20;53.90;;;;;;4899858;29;20304;-85
2021/03/10 04:25:54;;;;;;;;;;;17.20;53.90;;;;;;4923585;29;19934;-85
2021/03/10 04:28:20;;;;;;;;;;;17.20;53.90;;;;;;4907512;29;20331;-85
2021/03/10 04:30:47;;;;;;;;;;;17.20;53.80;;;;;;4907199;29;19928;-85
2021/03/10 04:33:13;;;;;;;;;;;17.20;53.80;;;;;;4903804;29;20440;-85
2021/03/10 04:35:39;;;;;;;;;;;17.20;53.80;;;;;;4911435;29;19923;-84
2021/03/10 04:38:24;;;;;;;;;;;17.20;53.80;;;;;;4904089;29;20035;-85
2021/03/10 04:40:51;;;;;;;;;;;17.20;53.80;;;;;;4910674;29;19935;-85
2021/03/10 04:43:17;;;;;;;;;;;17.20;53.80;;;;;;4908888;29;20022;-87
2021/03/10 04:45:43;;;;;;;;;;;17.20;53.80;;;;;;4913027;29;19934;-87
2021/03/10 04:48:09;;;;;;;;;;;17.10;53.70;;;;;;4906666;29;20303;-87
2021/03/10 04:50:36;;;;;;;;;;;17.20;53.80;;;;;;4924492;29;20273;-87
2021/03/10 04:53:02;;;;;;;;;;;17.20;53.70;;;;;;4905400;29;19938;-89
2021/03/10 04:55:28;;;;;;;;;;;17.20;53.70;;;;;;4910921;29;19935;-88
2021/03/10 04:57:54;;;;;;;;;;;17.10;53.70;;;;;;4908467;29;19927;-88
2021/03/10 05:00:21;;;;;;;;;;;17.10;53.70;;;;;;4911020;29;19923;-89
2021/03/10 05:02:47;;;;;;;;;;;17.20;53.80;;;;;;4928930;28;19927;-85
2021/03/10 05:05:14;;;;;;;;;;;17.10;53.70;;;;;;4926116;29;20380;-89
2021/03/10 05:07:43;;;;;;;;;;;17.10;53.70;;;;;;4913629;29;19927;-87
2021/03/10 05:10:11;;;;;;;;;;;17.10;53.60;;;;;;4905355;29;20707;-88
2021/03/10 05:12:37;;;;;;;;;;;17.10;53.70;;;;;;4927651;29;19950;-88
2021/03/10 05:15:04;;;;;;;;;;;17.10;53.60;;;;;;4905804;29;20014;-87
2021/03/10 05:17:30;;;;;;;;;;;17.10;53.60;;;;;;4912573;29;20311;-87
2021/03/10 05:19:57;;;;;;;;;;;17.10;53.60;;;;;;4905517;29;19927;-87
2021/03/10 05:22:24;;;;;;;;;;;17.10;53.60;;;;;;4913265;29;19915;-89
2021/03/10 05:24:50;;;;;;;;;;;17.10;53.60;;;;;;4885900;29;19937;-87
2021/03/10 05:27:16;;;;;;;;;;;17.10;53.60;;;;;;4910556;29;19934;-87
2021/03/10 05:29:43;;;;;;;;;;;17.10;53.50;;;;;;4904425;29;19958;-87
2021/03/10 05:32:10;;;;;;;;;;;17.10;53.50;;;;;;4923472;29;20018;-87
2021/03/10 05:34:36;;;;;;;;;;;17.10;53.50;;;;;;4897569;29;19945;-87
2021/03/10 05:37:03;;;;;;;;;;;17.10;53.50;;;;;;4907527;29;19927;-86
2021/03/10 05:39:30;;;;;;;;;;;17.10;53.50;;;;;;4906801;29;20284;-87
2021/03/10 05:41:57;;;;;;;;;;;17.10;53.50;;;;;;4927772;28;19933;-87
2021/03/10 05:44:25;;;;;;;;;;;17.10;53.50;;;;;;4911785;29;19934;-86
2021/03/10 05:46:54;;;;;;;;;;;17.10;53.40;;;;;;4903705;29;20022;-86
2021/03/10 05:49:21;;;;;;;;;;;17.00;53.40;;;;;;4911068;29;19927;-85
2021/03/10 05:51:49;;;;;;;;;;;17.10;53.50;;;;;;4899563;29;19927;-86
2021/03/10 05:54:15;;;;;;;;;;;17.10;54.10;;;;;;4917746;29;19927;-86
2021/03/10 05:56:42;;;;;;;;;;;17.10;53.40;;;;;;4912176;29;19956;-87
2021/03/10 05:59:08;;;;;;;;;;;17.10;53.40;;;;;;4909761;29;20416;-86
2021/03/10 06:01:35;;;;;;;;;;;17.10;53.40;;;;;;4916046;28;19927;-86
2021/03/10 06:04:03;;;;;;;;;;;17.10;53.40;;;;;;4908873;29;19970;-90
2021/03/10 06:06:34;;;;;;;;;;;17.10;53.40;;;;;;4910979;29;19927;-91
2021/03/10 06:09:09;;;;;;;;;;;17.10;53.40;;;;;;4911797;29;19934;-90
2021/03/10 06:11:37;;;;;;;;;;;17.10;53.40;;;;;;4927427;29;20329;-90
2021/03/10 06:14:14;;;;;;;;;;;17.00;53.40;;;;;;4909135;29;20355;-88
2021/03/10 06:16:41;;;;;;;;;;;17.10;53.40;;;;;;4920987;29;19994;-86
2021/03/10 06:19:07;;;;;;;;;;;17.10;53.40;;;;;;4911980;29;20280;-87
2021/03/10 06:21:34;;;;;;;;;;;17.10;53.30;;;;;;4907634;29;19935;-88
2021/03/10 06:24:01;;;;;;;;;;;17.10;53.30;;;;;;4918157;29;20557;-85
2021/03/10 06:26:29;;;;;;;;;;;17.00;53.40;;;;;;4907998;29;19935;-84
2021/03/10 06:28:56;;;;;;;;;;;17.10;53.40;;;;;;4906755;29;20542;-84
2021/03/10 06:31:31;;;;;;;;;;;17.00;53.90;;;;;;4912878;29;19941;-84
2021/03/10 06:34:02;;;;;;;;;;;17.00;53.20;;;;;;4909688;29;20460;-83
2021/03/10 06:36:31;;;;;;;;;;;17.00;53.20;;;;;;4903108;29;21770;-89
2021/03/10 06:38:58;;;;;;;;;;;17.00;53.10;;;;;;4922511;29;19927;-86
2021/03/10 06:41:28;;;;;;;;;;;17.10;53.10;;;;;;4911303;29;19935;-93
2021/03/10 06:43:54;;;;;;;;;;;17.10;53.70;;;;;;4923621;29;19931;-93
2021/03/10 06:46:20;;;;;;;;;;;17.20;53.40;;;;;;4910949;29;19974;-86
2021/03/10 06:48:58;;;;;;;;;;;17.30;53.40;;;;;;4908784;29;19986;-90
2021/03/10 06:51:25;;;;;;;;;;;17.40;53.40;;;;;;4927981;29;20490;-92
2021/03/10 06:53:51;;;;;;;;;;;17.50;53.30;;;;;;4905814;29;19935;-83
2021/03/10 06:56:18;;;;;;;;;;;17.60;53.30;;;;;;4911080;29;19983;-87
2021/03/10 06:59:01;;;;;;;;;;;17.60;52.60;;;;;;4903721;28;20009;-87
2021/03/10 07:01:35;;;;;;;;;;;17.70;52.30;;;;;;4909705;29;21921;-86
2021/03/10 07:04:02;;;;;;;;;;;17.70;52.00;;;;;;4916143;29;20033;-93
2021/03/10 07:06:29;;;;;;;;;;;17.80;52.10;;;;;;4907235;28;20017;-92
2021/03/10 07:08:55;;;;;;;;;;;17.80;52.00;;;;;;4904764;29;20420;-85
2021/03/10 07:11:22;;;;;;;;;;;17.80;51.70;;;;;;4911832;29;19928;-89
2021/03/10 07:13:49;;;;;;;;;;;17.80;51.70;;;;;;4901739;29;19931;-88
2021/03/10 07:16:15;;;;;;;;;;;17.80;51.70;;;;;;4908351;29;19931;-88
2021/03/10 07:18:46;;;;;;;;;;;17.80;51.80;;;;;;4904954;29;19935;-93
2021/03/10 07:21:14;;;;;;;;;;;17.80;51.70;;;;;;4927336;29;19942;-87
2021/03/10 07:23:47;;;;;;;;;;;17.80;51.80;;;;;;4904152;29;19935;-93
2021/03/10 07:26:15;;;;;;;;;;;17.70;54.30;;;;;;4933629;29;19927;-95
2021/03/10 07:28:47;;;;;;;;;;;17.80;53.80;;;;;;5216299;23;19974;-92
2021/03/10 07:31:17;;;;;;;;;;;17.90;54.00;;;;;;4920317;29;20441;-93
2021/03/10 07:33:50;;;;;;;;;;;17.90;53.70;;;;;;4891310;29;19931;-91
2021/03/10 07:36:17;;;;;;;;;;;18.00;53.20;;;;;;4915378;29;20027;-88
2021/03/10 07:38:44;;;;;;;;;;;18.00;53.10;;;;;;4901495;29;19931;-87
2021/03/10 07:41:11;;;;;;;;;;;18.10;53.60;;;;;;4925661;29;19974;-92
2021/03/10 07:43:41;;;;;;;;;;;18.10;53.70;;;;;;4901071;29;19927;-89
2021/03/10 07:46:21;;;;;;;;;;;18.20;54.00;;;;;;4899757;29;20315;-89
2021/03/10 07:48:48;;;;;;;;;;;18.20;53.50;;;;;;4903075;29;19927;-93
2021/03/10 07:51:24;;;;;;;;;;;18.30;53.70;;;;;;4897681;29;20281;-91
2021/03/10 07:53:50;;;;;;;;;;;18.20;52.60;;;;;;4908460;29;19934;-91
2021/03/10 07:56:28;;;;;;;;;;;18.20;52.40;;;;;;4891242;29;20006;-88
2021/03/10 07:59:06;;;;;;;;;;;18.20;53.00;;;;;;4899061;29;19937;-89
2021/03/10 08:01:32;;;;;;;;;;;19.20;51.30;;;;;;4906306;29;20127;-95
2021/03/10 08:04:09;;;;;;;;;;;20.10;49.30;;;;;;4884486;29;19955;-91
2021/03/10 08:06:49;;;;;;;;;;;20.60;48.60;;;;;;4875048;29;19922;-95
2021/03/10 08:09:21;;;;;;;;;;;21.00;47.70;;;;;;4889235;29;19923;-92
2021/03/10 08:12:08;;;;;;;;;;;21.30;47.50;;;;;;4903187;29;19926;-94
2021/03/10 08:14:39;;;;;;;;;;;21.50;47.20;;;;;;4900538;29;19928;-92
2021/03/10 08:17:09;;;;;;;;;;;21.70;46.80;;;;;;4902656;29;19927;-94
2021/03/10 08:19:36;;;;;;;;;;;22.00;46.40;;;;;;4901295;29;20132;-89
2021/03/10 08:22:03;;;;;;;;;;;22.10;46.30;;;;;;4908405;29;19931;-91
2021/03/10 08:24:29;;;;;;;;;;;22.30;45.90;;;;;;4901289;29;19931;-89
2021/03/10 08:26:59;;;;;;;;;;;22.50;45.80;;;;;;4892319;29;20030;-90
2021/03/10 08:29:31;;;;;;;;;;;22.70;45.20;;;;;;4898051;29;19928;-90
2021/03/10 08:31:59;;;;;;;;;;;22.90;45.10;;;;;;4877597;29;19927;-92
2021/03/10 08:34:34;;;;;;;;;;;23.10;44.80;;;;;;4893002;29;19969;-86
2021/03/10 08:37:04;;;;;;;;;;;23.20;44.20;;;;;;4914445;29;20302;-92
2021/03/10 08:39:30;;;;;;;;;;;23.50;43.90;;;;;;4918138;29;20566;-93
2021/03/10 08:41:58;;;;;;;;;;;23.60;43.70;;;;;;4879634;29;19934;-92
2021/03/10 08:44:27;;;;;;;;;;;23.70;43.70;;;;;;4875989;29;20014;-91
2021/03/10 08:46:54;;;;;;;;;;;23.80;43.60;;;;;;4893071;29;21668;-93
2021/03/10 08:49:27;;;;;;;;;;;23.90;43.30;;;;;;4865322;29;19979;-91
2021/03/10 08:52:08;;;;;;;;;;;23.90;44.00;;;;;;4897649;29;20277;-89
2021/03/10 08:54:56;;;;;;;;;;;24.00;43.20;;;;;;4900067;29;20537;-94
2021/03/10 08:57:32;;;;;;;;;;;24.10;43.10;;;;;;4900871;29;19935;-94
2021/03/10 09:00:23;;;;;;;;;;;24.20;42.90;;;;;;4893666;29;19935;-94
2021/03/10 09:02:50;;;;;;;;;;;24.30;42.50;;;;;;4896086;29;20515;-87
2021/03/10 09:05:25;;;;;;;;;;;24.40;42.30;;;;;;4905666;29;19927;-96
2021/03/10 09:07:52;;;;;;;;;;;24.60;42.20;;;;;;4893184;29;19935;-93
2021/03/10 09:10:23;;;;;;;;;;;24.60;42.10;;;;;;4889898;29;20003;-92
2021/03/10 09:12:50;;;;;;;;;;;24.70;42.10;;;;;;4896539;29;21509;-92
2021/03/10 09:15:20;;;;;;;;;;;24.70;41.70;;;;;;4893704;29;19974;-84
2021/03/10 09:17:47;;;;;;;;;;;24.70;42.00;;;;;;4896489;29;19969;-84
2021/03/10 09:20:27;;;;;;;;;;;25.10;41.50;;;;;;4904382;29;20039;-85
2021/03/10 09:22:54;;;;;;;;;;;24.90;40.80;;;;;;4906244;29;20662;-87
2021/03/10 09:25:21;;;;;;;;;;;24.30;42.50;;;;;;4910517;29;20022;-85
2021/03/10 09:27:48;;;;;;;;;;;23.90;44.00;;;;;;4894198;29;20302;-87
2021/03/10 09:33:41;;;;;;;;;;;23.40;44.60;;;;;;4892826;29;19927;-95
2021/03/10 09:36:11;;;;;;;;;;;22.70;42.00;;;;;;4885719;29;19967;-93
2021/03/10 09:38:40;;;;;;;;;;;22.10;42.90;;;;;;4888207;29;19978;-92
2021/03/10 09:41:09;;;;;;;;;;;21.80;43.60;;;;;;4882336;29;20387;-89
2021/03/10 09:43:35;;;;;;;;;;;21.60;44.30;;;;;;4914474;29;19951;-88
2021/03/10 09:46:03;;;;;;;;;;;21.40;44.90;;;;;;4878403;29;19955;-89
2021/03/10 09:48:31;;;;;;;;;;;21.30;45.30;;;;;;4903201;29;19982;-89
2021/03/10 09:51:03;;;;;;;;;;;21.20;45.60;;;;;;4883497;29;21696;-89
2021/03/10 09:53:29;;;;;;;;;;;21.10;45.80;;;;;;4897555;29;19935;-87
2021/03/10 09:56:06;;;;;;;;;;;21.00;46.10;;;;;;4897973;29;19935;-88
2021/03/10 09:58:44;;;;;;;;;;;21.00;47.00;;;;;;4909778;29;20711;-94
2021/03/10 10:01:12;;;;;;;;;;;21.00;47.40;;;;;;4902272;29;20284;-96
2021/03/10 10:03:47;;;;;;;;;;;21.00;47.30;;;;;;4907649;29;20026;-95
2021/03/10 10:06:17;;;;;;;;;;;21.00;47.40;;;;;;4895818;29;20414;-92
2021/03/10 10:09:17;;;;;;;;;;;20.90;47.30;;;;;;4890921;29;19933;-96
2021/03/10 10:11:43;;;;;;;;;;;20.90;47.90;;;;;;4999462;23;19951;-95
2021/03/10 10:14:17;;;;;;;;;;;20.80;47.90;;;;;;4913559;29;19974;-94
2021/03/10 10:16:46;;;;;;;;;;;20.80;47.90;;;;;;4878494;29;19927;-93
2021/03/10 10:19:16;;;;;;;;;;;20.80;48.30;;;;;;5057216;23;19930;-90
2021/03/10 10:21:46;;;;;;;;;;;20.80;47.90;;;;;;4907349;29;19947;-88
2021/03/10 10:24:17;;;;;;;;;;;20.80;47.60;;;;;;4869531;29;19932;-91
2021/03/10 10:26:45;;;;;;;;;;;20.70;47.90;;;;;;4849666;29;19931;-88
2021/03/10 10:29:17;;;;;;;;;;;20.70;47.80;;;;;;4886849;29;19992;-89
2021/03/10 10:31:43;;;;;;;;;;;20.60;47.90;;;;;;4896203;29;20027;-91
2021/03/10 10:34:10;;;;;;;;;;;20.60;47.90;;;;;;4887613;29;20815;-92
2021/03/10 10:36:36;;;;;;;;;;;20.60;47.80;;;;;;4878510;29;20545;-88
2021/03/10 10:39:16;;;;;;;;;;;20.70;47.80;;;;;;4862635;29;19994;-86
2021/03/10 10:41:42;;;;;;;;;;;20.70;47.30;;;;;;4869537;29;19931;-87
2021/03/10 10:44:09;;;;;;;;;;;20.70;47.20;;;;;;4903107;29;19935;-87
2021/03/10 10:46:41;;;;;;;;;;;20.60;47.20;;;;;;4868190;29;20014;-86
2021/03/10 10:49:08;;;;;;;;;;;20.50;48.50;;;;;;4869424;29;20027;-95
2021/03/10 10:51:34;;;;;;;;;;;20.70;48.10;;;;;;4901818;29;19928;-94
2021/03/10 10:54:01;;;;;;;;;;;20.70;47.80;;;;;;4863954;29;20214;-90
2021/03/10 10:56:28;;;;;;;;;;;20.90;47.90;;;;;;4869252;29;20243;-90
2021/03/10 10:59:06;;;;;;;;;;;20.90;48.00;;;;;;4877833;29;19927;-91
2021/03/10 11:01:33;;;;;;;;;;;21.00;46.40;;;;;;4883479;29;19959;-95
2021/03/10 11:03:59;;;;;;;;;;;20.70;46.50;;;;;;4859068;29;20717;-94
2021/03/10 11:06:26;;;;;;;;;;;20.60;46.90;;;;;;4879794;29;20022;-95
2021/03/10 11:08:53;;;;;;;;;;;20.50;46.90;;;;;;4914748;29;19928;-95
2021/03/10 11:11:21;;;;;;;;;;;20.40;46.90;;;;;;4884779;29;19928;-94
2021/03/10 11:13:48;;;;;;;;;;;20.40;47.00;;;;;;4870995;29;19915;-96
2021/03/10 11:16:17;;;;;;;;;;;20.30;47.00;;;;;;4879004;29;19928;-95
2021/03/10 11:18:48;;;;;;;;;;;20.30;47.00;;;;;;4872835;29;19959;-95
2021/03/10 11:21:25;;;;;;;;;;;20.20;47.10;;;;;;4915929;29;19935;-95
2021/03/10 11:24:04;;;;;;;;;;;20.20;47.10;;;;;;4928676;28;21839;-95
2021/03/10 11:26:31;;;;;;;;;;;20.10;47.00;;;;;;4918264;29;19994;-94
2021/03/10 11:29:01;;;;;;;;;;;20.10;47.10;;;;;;4906819;29;19935;-96
2021/03/10 11:31:29;;;;;;;;;;;20.10;47.10;;;;;;4902754;29;20416;-95
2021/03/10 11:34:17;;;;;;;;;;;20.00;47.20;;;;;;4869482;29;19915;-95
2021/03/10 11:36:45;;;;;;;;;;;20.00;47.20;;;;;;4902392;29;19927;-85
2021/03/10 11:39:12;;;;;;;;;;;19.90;47.70;;;;;;4910867;29;19938;-88
2021/03/10 11:41:39;;;;;;;;;;;19.90;47.10;;;;;;4915026;29;19935;-91
2021/03/10 11:44:05;;;;;;;;;;;19.90;47.30;;;;;;4930386;29;19935;-95
2021/03/10 11:46:32;;;;;;;;;;;19.90;47.30;;;;;;4915901;29;19999;-92
2021/03/10 11:49:13;;;;;;;;;;;19.90;47.30;;;;;;4899050;29;19994;-92
2021/03/10 11:51:40;;;;;;;;;;;20.00;47.40;;;;;;4901625;29;19931;-94
2021/03/10 11:54:07;;;;;;;;;;;19.90;47.30;;;;;;4927496;29;19915;-94
2021/03/10 11:56:34;;;;;;;;;;;19.90;47.30;;;;;;4915866;29;22991;-93
2021/03/10 11:59:00;;;;;;;;;;;19.80;47.20;;;;;;4889597;29;19931;-93
2021/03/10 12:01:27;;;;;;;;;;;19.80;47.20;;;;;;4898955;29;19927;-93
2021/03/10 12:03:54;;;;;;;;;;;19.80;47.30;;;;;;4920095;29;19966;-91
2021/03/10 12:06:20;;;;;;;;;;;19.80;47.30;;;;;;4913687;29;19927;-95
2021/03/10 12:08:46;;;;;;;;;;;19.80;47.30;;;;;;4900470;29;19974;-95
2021/03/10 12:11:13;;;;;;;;;;;19.70;47.30;;;;;;4898098;29;20022;-94
2021/03/10 12:13:39;;;;;;;;;;;19.70;47.30;;;;;;4903150;29;19928;-92
2021/03/10 12:16:07;;;;;;;;;;;19.70;47.30;;;;;;4900587;29;19935;-94
2021/03/10 12:18:36;;;;;;;;;;;19.70;47.20;;;;;;4901591;29;20447;-95
2021/03/10 12:21:05;;;;;;;;;;;19.70;47.30;;;;;;4898517;29;19927;-91
2021/03/10 12:23:33;;;;;;;;;;;19.70;47.30;;;;;;4932626;29;20336;-91
2021/03/10 12:25:59;;;;;;;;;;;19.70;47.20;;;;;;4896941;29;19931;-95
2021/03/10 12:28:26;;;;;;;;;;;19.60;47.40;;;;;;4900128;29;19931;-93
2021/03/10 12:30:52;;;;;;;;;;;19.70;47.50;;;;;;4900249;29;19927;-94
2021/03/10 12:33:21;;;;;;;;;;;19.60;47.40;;;;;;4903516;29;19942;-93
2021/03/10 12:35:47;;;;;;;;;;;19.60;47.40;;;;;;4890294;29;19915;-95
2021/03/10 12:38:14;;;;;;;;;;;19.60;47.20;;;;;;4903488;29;19981;-92
2021/03/10 12:40:49;;;;;;;;;;;19.60;48.30;;;;;;4901185;29;19966;-93
2021/03/10 12:43:16;;;;;;;;;;;19.60;47.90;;;;;;4914402;29;19931;-89
2021/03/10 12:45:42;;;;;;;;;;;19.60;47.90;;;;;;4912729;29;19931;-92
2021/03/10 12:48:09;;;;;;;;;;;19.70;48.00;;;;;;4913158;29;19927;-86
2021/03/10 12:50:35;;;;;;;;;;;19.70;49.30;;;;;;4913810;29;19986;-85
2021/03/10 12:53:02;;;;;;;;;;;19.60;49.40;;;;;;4883499;29;19938;-86
2021/03/10 12:55:28;;;;;;;;;;;19.60;50.00;;;;;;4912243;29;19935;-89
2021/03/10 12:58:01;;;;;;;;;;;19.60;50.40;;;;;;4911597;29;20336;-89
2021/03/10 13:00:30;;;;;;;;;;;19.60;50.40;;;;;;4915897;29;19931;-88
2021/03/10 13:02:58;;;;;;;;;;;19.60;54.20;;;;;;4893898;29;19958;-89
2021/03/10 13:05:25;;;;;;;;;;;19.60;54.40;;;;;;4928897;29;19935;-92
2021/03/10 13:07:52;;;;;;;;;;;19.70;53.90;;;;;;4894133;29;20395;-94
2021/03/10 13:10:23;;;;;;;;;;;19.70;54.50;;;;;;4930382;29;19950;-90
2021/03/10 13:12:50;;;;;;;;;;;19.70;53.60;;;;;;4915347;29;19970;-90
2021/03/10 13:15:17;;;;;;;;;;;19.80;53.30;;;;;;4904007;29;19971;-91
2021/03/10 13:17:43;;;;;;;;;;;19.80;53.40;;;;;;4895557;29;19955;-87
2021/03/10 13:20:14;;;;;;;;;;;19.80;53.30;;;;;;4915201;29;19927;-88
2021/03/10 13:22:40;;;;;;;;;;;19.80;52.50;;;;;;4896607;29;19929;-85
2021/03/10 13:25:09;;;;;;;;;;;19.80;55.10;;;;;;4896357;29;19915;-87
2021/03/10 13:27:35;;;;;;;;;;;19.90;53.60;;;;;;4904950;29;19931;-88
2021/03/10 13:30:09;;;;;;;;;;;19.90;54.20;;;;;;4896982;29;19915;-87
2021/03/10 13:32:36;;;;;;;;;;;19.90;54.50;;;;;;4901793;29;20327;-85
2021/03/10 13:35:09;;;;;;;;;;;20.00;53.30;;;;;;4908034;29;19935;-87
2021/03/10 13:37:37;;;;;;;;;;;20.10;52.40;;;;;;4896321;29;19935;-86
2021/03/10 13:40:05;;;;;;;;;;;20.20;51.40;;;;;;4920505;29;19983;-85
2021/03/10 13:42:32;;;;;;;;;;;20.20;52.70;;;;;;4911256;29;19970;-88
2021/03/10 13:44:58;;;;;;;;;;;20.30;52.60;;;;;;4888781;29;19935;-87
2021/03/10 13:47:25;;;;;;;;;;;20.40;51.80;;;;;;4912729;29;20014;-94
2021/03/10 13:49:52;;;;;;;;;;;20.50;51.40;;;;;;4883373;29;19911;-90
2021/03/10 13:52:19;;;;;;;;;;;20.70;51.10;;;;;;4895493;29;19966;-88
2021/03/10 13:54:46;;;;;;;;;;;20.70;50.90;;;;;;4894223;29;19990;-91
2021/03/10 13:57:12;;;;;;;;;;;20.70;50.60;;;;;;4898896;29;20277;-86
2021/03/10 13:59:38;;;;;;;;;;;20.80;50.60;;;;;;4912864;29;19927;-92
2021/03/10 14:02:04;;;;;;;;;;;20.90;50.20;;;;;;4898510;29;20388;-94
2021/03/10 14:04:32;;;;;;;;;;;21.00;50.20;;;;;;4928254;29;19931;-89
2021/03/10 14:06:59;;;;;;;;;;;21.00;50.10;;;;;;4899946;29;19931;-93
2021/03/10 14:09:25;;;;;;;;;;;21.00;49.60;;;;;;4895029;29;19970;-93
2021/03/10 14:11:57;;;;;;;;;;;21.10;49.70;;;;;;4900325;29;19915;-95
2021/03/10 14:14:24;;;;;;;;;;;21.20;49.50;;;;;;4891333;29;22646;-90
2021/03/10 14:16:50;;;;;;;;;;;21.20;49.40;;;;;;4897535;29;19927;-88
2021/03/10 14:19:17;;;;;;;;;;;21.20;49.20;;;;;;4892338;29;20437;-90
2021/03/10 14:21:43;;;;;;;;;;;21.20;49.20;;;;;;4894816;29;19927;-89
2021/03/10 14:24:12;;;;;;;;;;;21.20;49.50;;;;;;4894633;29;20344;-92
2021/03/10 14:26:39;;;;;;;;;;;21.30;49.00;;;;;;4892223;29;20947;-92
2021/03/10 14:29:05;;;;;;;;;;;21.30;48.50;;;;;;4894771;29;20308;-87